Time;durP1;ratioP1;P1;durP2;ratioP2;P2;SDS_P1;SDS_P2;PMS_P1;PMS_P2;Temp;Humidity;BMP_temperature;BMP_pressure;BME280_temperature;BME280_humidity;BME280_pressure;Samples;Min_cycle;Max_cycle;Signal;HPM_P1;HPM_P2
2022/11/16 00:00:32;;;;;;;21.40;18.42;;;10.30;99.90;;;;;;5056190;28;20080;-42
2022/11/16 00:03:02;;;;;;;15.18;12.40;;;10.30;99.90;;;;;;5057282;28;20355;-43
2022/11/16 00:05:27;;;;;;;16.13;14.52;;;10.30;99.90;;;;;;5056429;28;20051;-46
2022/11/16 00:07:53;;;;;;;14.35;12.15;;;10.20;99.90;;;;;;5055837;28;20048;-46
2022/11/16 00:10:19;;;;;;;14.98;12.32;;;10.20;99.90;;;;;;5055509;28;20049;-47
2022/11/16 00:12:44;;;;;;;13.02;11.63;;;10.20;99.90;;;;;;5056139;28;20054;-45
2022/11/16 00:15:10;;;;;;;13.77;12.13;;;10.20;99.90;;;;;;5056222;28;20131;-46
2022/11/16 00:17:35;;;;;;;14.38;12.32;;;10.30;99.90;;;;;;5055766;28;20052;-46
2022/11/16 00:20:01;;;;;;;13.98;12.43;;;10.30;99.90;;;;;;5055911;28;20123;-41
2022/11/16 00:22:27;;;;;;;13.65;12.23;;;10.30;99.90;;;;;;5052370;28;20474;-44
2022/11/16 00:24:52;;;;;;;14.60;12.77;;;10.30;99.90;;;;;;5055629;28;20118;-47
2022/11/16 00:27:18;;;;;;;14.65;13.15;;;10.40;99.90;;;;;;5056028;28;20442;-42
2022/11/16 00:29:44;;;;;;;14.23;12.23;;;10.40;99.90;;;;;;5055974;28;20051;-50
2022/11/16 00:32:11;;;;;;;16.42;14.82;;;10.30;99.90;;;;;;5056120;28;20071;-47
2022/11/16 00:34:38;;;;;;;17.40;14.80;;;10.30;99.90;;;;;;5055755;28;20541;-42
2022/11/16 00:37:04;;;;;;;20.27;14.95;;;10.40;99.90;;;;;;5055620;28;20045;-44
2022/11/16 00:39:29;;;;;;;16.10;14.40;;;10.40;99.90;;;;;;5054926;28;20044;-44
2022/11/16 00:41:55;;;;;;;17.88;15.15;;;10.40;99.90;;;;;;5051916;28;20052;-42
2022/11/16 00:44:21;;;;;;;16.13;14.43;;;10.30;99.90;;;;;;5055353;28;20040;-49
2022/11/16 00:46:46;;;;;;;17.67;15.80;;;10.40;99.90;;;;;;5055578;28;20044;-42
2022/11/16 00:49:12;;;;;;;16.67;14.90;;;10.40;99.90;;;;;;5055115;28;20048;-42
2022/11/16 00:51:38;;;;;;;19.23;16.20;;;10.40;99.90;;;;;;5054651;28;20463;-42
2022/11/16 00:54:05;;;;;;;17.20;14.95;;;10.40;99.90;;;;;;5055891;28;20072;-44
2022/11/16 00:56:31;;;;;;;18.27;16.38;;;10.40;99.90;;;;;;5054367;28;20045;-47
2022/11/16 00:58:56;;;;;;;16.77;14.98;;;10.50;99.90;;;;;;5055241;28;20051;-45
2022/11/16 01:01:22;;;;;;;18.83;16.80;;;10.50;99.90;;;;;;5055181;28;20403;-47
2022/11/16 01:03:48;;;;;;;21.95;16.80;;;10.50;99.90;;;;;;5054557;28;20580;-43
2022/11/16 01:06:15;;;;;;;22.27;18.13;;;10.30;99.90;;;;;;5053610;28;20531;-46
2022/11/16 01:08:43;;;;;;;20.23;17.10;;;10.40;99.90;;;;;;5053936;28;20049;-47
2022/11/16 01:13:55;;;;;;;20.85;17.52;;;10.30;99.90;;;;;;5055242;28;20056;-45
2022/11/16 01:16:22;;;;;;;22.15;17.52;;;10.40;99.90;;;;;;5053278;28;20048;-48
2022/11/16 01:18:50;;;;;;;25.20;19.25;;;10.40;99.90;;;;;;5055282;28;20059;-44
2022/11/16 01:21:17;;;;;;;20.98;17.85;;;10.30;99.90;;;;;;5051153;28;20048;-47
2022/11/16 01:23:43;;;;;;;25.23;20.52;;;10.30;99.90;;;;;;5043870;28;20048;-42
2022/11/16 01:26:09;;;;;;;27.98;20.90;;;10.40;99.90;;;;;;5054301;28;20044;-48
2022/11/16 01:28:34;;;;;;;23.65;19.13;;;10.40;99.90;;;;;;5054170;28;20139;-46
2022/11/16 01:31:00;;;;;;;26.88;20.55;;;10.50;99.90;;;;;;5053744;28;20045;-45
2022/11/16 01:33:27;;;;;;;22.38;18.52;;;10.50;99.90;;;;;;5054397;28;20055;-45
2022/11/16 01:35:53;;;;;;;24.08;19.90;;;10.40;99.90;;;;;;5053688;28;20045;-43
2022/11/16 01:38:18;;;;;;;27.48;21.67;;;10.40;99.90;;;;;;5054609;28;20608;-45
2022/11/16 01:40:44;;;;;;;24.75;20.25;;;10.40;99.90;;;;;;5049885;28;20045;-44
2022/11/16 01:43:22;;;;;;;24.75;20.27;;;10.50;99.90;;;;;;5054711;28;20395;-45
2022/11/16 01:45:48;;;;;;;25.27;20.90;;;10.50;99.90;;;;;;5052543;28;20121;-47
2022/11/16 01:48:21;;;;;;;28.70;20.60;;;10.40;99.90;;;;;;5054136;28;20060;-46
2022/11/16 01:50:48;;;;;;;30.92;21.92;;;10.40;99.90;;;;;;5053984;28;20045;-45
2022/11/16 01:53:20;;;;;;;23.48;19.85;;;10.50;99.90;;;;;;5053010;28;20052;-44
2022/11/16 01:55:47;;;;;;;28.43;22.27;;;10.40;99.90;;;;;;5054057;28;20514;-46
2022/11/16 01:58:18;;;;;;;27.88;21.48;;;10.40;99.90;;;;;;5054706;28;20125;-45
2022/11/16 02:00:43;;;;;;;27.98;22.98;;;10.50;99.90;;;;;;5053114;28;20052;-43
2022/11/16 02:03:09;;;;;;;32.60;24.08;;;10.40;99.90;;;;;;5036533;28;20048;-48
2022/11/16 02:06:03;;;;;;;26.42;21.70;;;10.60;99.90;;;;;;5052959;28;20061;-44
2022/11/16 02:11:54;;;;;;;35.15;24.80;;;10.40;99.90;;;;;;5053920;28;20060;-47
2022/11/16 02:14:25;;;;;;;33.65;24.35;;;10.60;99.90;;;;;;5054393;28;20060;-43
2022/11/16 02:16:57;;;;;;;33.88;24.85;;;10.60;99.90;;;;;;5056596;28;20052;-44
2022/11/16 02:19:50;;;;;;;31.00;24.65;;;10.60;99.90;;;;;;5057549;28;20721;-48
2022/11/16 02:22:26;;;;;;;35.78;26.02;;;10.60;99.90;;;;;;5055896;28;20490;-46
2022/11/16 02:25:09;;;;;;;34.03;25.48;;;10.60;99.90;;;;;;5058343;28;20053;-46
2022/11/16 02:27:41;;;;;;;29.05;22.90;;;10.50;99.90;;;;;;5057756;28;20401;-42
2022/11/16 02:30:06;;;;;;;30.17;23.30;;;10.50;99.90;;;;;;5057101;28;20141;-43
2022/11/16 02:32:43;;;;;;;25.95;22.38;;;10.50;99.90;;;;;;5058207;28;20072;-47
2022/11/16 02:35:23;;;;;;;30.90;24.95;;;10.60;99.90;;;;;;5057858;28;20052;-44
2022/11/16 02:37:56;;;;;;;34.58;25.58;;;10.50;99.90;;;;;;5057623;28;20395;-48
2022/11/16 02:40:25;;;;;;;34.35;24.60;;;10.60;99.90;;;;;;5052374;28;20053;-47
2022/11/16 02:43:00;;;;;;;37.30;26.33;;;10.60;99.90;;;;;;5057730;28;20055;-44
2022/11/16 02:45:28;;;;;;;35.35;25.33;;;10.50;99.90;;;;;;5057603;28;20087;-44
2022/11/16 02:48:00;;;;;;;35.92;26.75;;;10.50;99.90;;;;;;5057582;28;20080;-45
2022/11/16 02:50:27;;;;;;;36.50;27.00;;;10.40;99.90;;;;;;5057055;28;20399;-47
2022/11/16 02:52:54;;;;;;;42.00;26.98;;;10.60;99.90;;;;;;5058407;28;20049;-42
2022/11/16 02:55:20;;;;;;;39.55;26.77;;;10.60;99.90;;;;;;5058205;28;20076;-43
2022/11/16 02:57:55;;;;;;;37.05;26.05;;;10.60;99.90;;;;;;5057383;28;20041;-43
2022/11/16 03:00:32;;;;;;;36.50;26.88;;;10.50;99.90;;;;;;5054987;28;20060;-45
2022/11/16 03:03:15;;;;;;;26.48;22.73;;;10.50;99.90;;;;;;5068934;28;20095;-44
2022/11/16 03:05:51;;;;;;;39.92;28.35;;;10.50;99.90;;;;;;5043077;28;20088;-44
2022/11/16 03:08:28;;;;;;;46.90;28.23;;;10.40;99.90;;;;;;5057050;28;20047;-42
2022/11/16 03:13:47;;;;;;;29.25;23.42;;;10.50;99.90;;;;;;5045299;28;20079;-46
2022/11/16 03:16:21;;;;;;;34.20;26.13;;;10.60;99.90;;;;;;5056570;28;20060;-46
2022/11/16 03:18:50;;;;;;;40.95;27.98;;;10.50;99.90;;;;;;5057567;28;20044;-42
2022/11/16 03:21:36;;;;;;;34.67;26.27;;;10.60;99.90;;;;;;5053312;28;20057;-45
2022/11/16 03:24:03;;;;;;;37.05;25.95;;;10.50;99.90;;;;;;5046885;28;20056;-43
2022/11/16 03:26:37;;;;;;;33.28;25.48;;;10.60;99.90;;;;;;5056198;28;20421;-48
2022/11/16 03:29:28;;;;;;;33.20;24.88;;;10.60;99.90;;;;;;5056790;28;20078;-48
2022/11/16 03:32:00;;;;;;;34.75;25.92;;;10.60;99.90;;;;;;5046394;28;20060;-45
2022/11/16 03:34:32;;;;;;;32.70;25.40;;;10.50;99.90;;;;;;5057146;28;20608;-42
2022/11/16 03:36:59;;;;;;;29.10;23.30;;;10.60;99.90;;;;;;5056596;28;20036;-47
2022/11/16 03:39:30;;;;;;;32.85;25.88;;;10.60;99.90;;;;;;5055977;28;20122;-45
2022/11/16 03:41:59;;;;;;;31.88;25.70;;;10.70;99.90;;;;;;5051521;28;20040;-43
2022/11/16 03:44:25;;;;;;;37.38;25.65;;;10.50;99.90;;;;;;5056700;28;20067;-41
2022/11/16 03:46:51;;;;;;;26.85;22.02;;;10.60;99.90;;;;;;5056359;28;20043;-42
2022/11/16 03:49:21;;;;;;;30.13;24.40;;;10.50;99.90;;;;;;5056611;28;20052;-46
2022/11/16 03:51:48;;;;;;;28.73;23.58;;;10.50;99.90;;;;;;5056833;28;20055;-42
2022/11/16 03:54:14;;;;;;;34.25;25.40;;;10.50;99.90;;;;;;5056615;28;20612;-47
2022/11/16 03:56:39;;;;;;;33.10;24.50;;;10.50;99.90;;;;;;5054373;28;20127;-44
2022/11/16 03:59:05;;;;;;;31.92;24.58;;;10.50;99.90;;;;;;5056060;28;20418;-46
2022/11/16 04:01:31;;;;;;;30.95;23.05;;;10.60;99.90;;;;;;5056355;28;20357;-46
2022/11/16 04:03:56;;;;;;;33.40;24.42;;;10.60;99.90;;;;;;5056686;28;20399;-43
2022/11/16 04:25:58;;;;;;;30.10;24.25;;;10.50;99.90;;;;;;5032504;28;20084;-46
2022/11/16 04:28:28;;;;;;;29.70;23.58;;;10.60;99.90;;;;;;5032935;28;20683;-46
2022/11/16 04:39:10;;;;;;;33.63;25.77;;;10.70;99.90;;;;;;5030947;28;20568;-42
2022/11/16 04:44:21;;;;;;;34.22;25.60;;;10.70;99.90;;;;;;5032646;28;20523;-42
2022/11/16 04:49:31;;;;;;;26.10;22.55;;;10.60;99.90;;;;;;5035927;28;20059;-44
2022/11/16 04:51:57;;;;;;;35.95;26.17;;;10.60;99.90;;;;;;5055659;28;20151;-43
2022/11/16 04:54:23;;;;;;;34.33;25.30;;;10.60;99.90;;;;;;5054423;28;20487;-44
2022/11/16 04:56:48;;;;;;;35.45;25.90;;;10.60;99.90;;;;;;5055595;28;20391;-50
2022/11/16 04:59:14;;;;;;;38.13;26.50;;;10.60;99.90;;;;;;5055675;28;20491;-47
2022/11/16 05:04:24;;;;;;;43.50;27.95;;;10.70;99.90;;;;;;5053545;28;20083;-45
2022/11/16 05:06:50;;;;;;;32.40;25.77;;;10.60;99.90;;;;;;5053291;28;20459;-45
2022/11/16 05:09:16;;;;;;;32.97;25.92;;;10.60;99.90;;;;;;5055134;28;20059;-43
2022/11/16 05:11:41;;;;;;;37.00;27.35;;;10.70;99.90;;;;;;5054676;28;20056;-42
2022/11/16 05:14:09;;;;;;;33.67;26.63;;;10.60;99.90;;;;;;5055330;28;20532;-44
2022/11/16 05:16:34;;;;;;;40.40;28.08;;;10.70;99.90;;;;;;5054318;28;20394;-47
2022/11/16 05:21:44;;;;;;;38.90;29.45;;;10.60;99.90;;;;;;5051556;28;20063;-46
2022/11/16 05:26:54;;;;;;;39.40;29.40;;;10.60;99.90;;;;;;5042256;28;20056;-47
2022/11/16 05:29:20;;;;;;;35.78;29.27;;;10.60;99.90;;;;;;5053486;28;20083;-44
2022/11/16 05:31:45;;;;;;;35.65;28.33;;;10.80;99.90;;;;;;5054068;28;20098;-46
2022/11/16 05:34:11;;;;;;;35.28;28.60;;;10.60;99.90;;;;;;5054553;28;20044;-42
2022/11/16 05:36:37;;;;;;;34.88;27.67;;;10.70;99.90;;;;;;5053788;28;20497;-42
2022/11/16 05:39:03;;;;;;;33.33;26.63;;;10.80;99.90;;;;;;5053968;28;20044;-45
2022/11/16 05:41:29;;;;;;;33.25;26.52;;;10.70;99.90;;;;;;5048670;28;20417;-47
2022/11/16 05:43:55;;;;;;;28.83;23.67;;;10.70;99.90;;;;;;5052874;28;20405;-48
2022/11/16 05:46:21;;;;;;;26.17;21.83;;;10.60;99.90;;;;;;5053451;28;20044;-44
2022/11/16 05:48:47;;;;;;;25.58;19.90;;;10.60;99.90;;;;;;5054069;28;20064;-49
2022/11/16 05:51:12;;;;;;;25.70;21.15;;;10.70;99.90;;;;;;5052633;28;20044;-43
2022/11/16 05:53:38;;;;;;;27.05;21.40;;;10.60;99.90;;;;;;5053575;28;20059;-51
2022/11/16 05:56:04;;;;;;;28.85;21.88;;;10.70;99.90;;;;;;5053516;28;20513;-44
2022/11/16 05:58:30;;;;;;;30.48;22.10;;;10.60;99.90;;;;;;5053797;28;20074;-48
2022/11/16 06:00:57;;;;;;;28.65;21.55;;;10.70;99.90;;;;;;5053642;28;20328;-44
2022/11/16 06:03:22;;;;;;;32.95;21.85;;;10.70;99.90;;;;;;5052387;28;20055;-47
2022/11/16 06:05:52;;;;;;;31.13;21.90;;;10.50;99.90;;;;;;5051961;28;20052;-46
2022/11/16 06:08:17;;;;;;;27.05;21.63;;;10.50;99.90;;;;;;5053045;28;20049;-44
2022/11/16 06:10:43;;;;;;;36.10;23.98;;;10.70;99.90;;;;;;5052619;28;20048;-44
2022/11/16 06:13:09;;;;;;;33.30;22.52;;;10.50;99.90;;;;;;5053036;28;20041;-45
2022/11/16 06:15:38;;;;;;;24.48;19.42;;;10.60;99.90;;;;;;5054068;28;20056;-46
2022/11/16 06:18:05;;;;;;;26.65;18.65;;;10.50;99.90;;;;;;5052264;28;20149;-44
2022/11/16 06:20:33;;;;;;;30.52;19.75;;;10.60;99.90;;;;;;5053173;28;20080;-45
2022/11/16 06:22:58;;;;;;;29.90;20.75;;;10.50;99.90;;;;;;5050400;28;20049;-46
2022/11/16 06:25:24;;;;;;;30.45;20.50;;;10.50;99.90;;;;;;5053082;28;20036;-47
2022/11/16 06:27:50;;;;;;;46.50;21.80;;;10.40;99.90;;;;;;5053771;28;20513;-45
2022/11/16 06:30:15;;;;;;;30.15;20.17;;;10.30;99.90;;;;;;5053673;28;20577;-46
2022/11/16 06:32:41;;;;;;;24.25;18.25;;;10.50;99.90;;;;;;5053843;28;20482;-43
2022/11/16 06:35:07;;;;;;;27.83;19.55;;;10.40;99.90;;;;;;5054361;28;20045;-45
2022/11/16 06:37:33;;;;;;;27.90;18.98;;;10.30;99.90;;;;;;5053768;28;20052;-44
2022/11/16 06:39:58;;;;;;;23.73;18.42;;;10.40;99.90;;;;;;5053512;28;20572;-46
2022/11/16 06:42:24;;;;;;;30.40;18.90;;;10.30;99.90;;;;;;5049886;28;20525;-46
2022/11/16 06:44:50;;;;;;;32.60;20.38;;;10.30;99.90;;;;;;5053858;28;20470;-45
2022/11/16 06:47:15;;;;;;;32.70;20.55;;;10.40;99.90;;;;;;5052048;28;20092;-44
2022/11/16 06:49:41;;;;;;;27.85;19.10;;;10.40;99.90;;;;;;5053382;28;20498;-46
2022/11/16 06:52:07;;;;;;;38.78;21.65;;;10.20;99.90;;;;;;5053602;28;20044;-44
2022/11/16 06:54:32;;;;;;;32.88;20.63;;;10.20;99.90;;;;;;5053450;28;20419;-47
2022/11/16 06:56:58;;;;;;;39.72;22.20;;;10.30;99.90;;;;;;5053475;28;20434;-45
2022/11/16 06:59:23;;;;;;;38.30;21.92;;;10.20;99.90;;;;;;5052931;28;20052;-45
2022/11/16 07:01:50;;;;;;;34.63;21.95;;;10.30;99.90;;;;;;5055122;28;20078;-46
2022/11/16 07:04:15;;;;;;;37.60;23.23;;;10.30;99.90;;;;;;5057655;28;20135;-45
2022/11/16 07:06:41;;;;;;;46.70;24.63;;;10.30;99.90;;;;;;5056753;28;20462;-45
2022/11/16 07:09:08;;;;;;;42.05;23.27;;;10.10;99.90;;;;;;5057096;28;20048;-43
2022/11/16 07:11:34;;;;;;;36.22;21.92;;;10.20;99.90;;;;;;5057314;28;20430;-47
2022/11/16 07:14:01;;;;;;;38.13;23.40;;;10.20;99.90;;;;;;5057414;28;20091;-49
2022/11/16 07:16:27;;;;;;;37.25;22.25;;;10.10;99.90;;;;;;5056892;28;20094;-45
2022/11/16 07:18:56;;;;;;;40.00;22.35;;;10.20;99.90;;;;;;5056938;28;20064;-48
2022/11/16 07:21:22;;;;;;;34.08;21.25;;;10.10;99.90;;;;;;5053714;28;20783;-49
2022/11/16 07:23:48;;;;;;;32.15;20.85;;;10.10;99.90;;;;;;5057819;28;20495;-41
2022/11/16 07:26:13;;;;;;;28.88;19.98;;;10.20;99.90;;;;;;5054727;28;20835;-45
2022/11/16 07:28:39;;;;;;;39.08;20.88;;;10.10;99.90;;;;;;5056987;28;20048;-48
2022/11/16 07:31:07;;;;;;;33.15;20.00;;;10.10;99.90;;;;;;5057432;28;20101;-46
2022/11/16 07:33:33;;;;;;;34.65;20.73;;;10.00;99.90;;;;;;5057181;28;20053;-46
2022/11/16 07:36:01;;;;;;;25.08;19.08;;;10.10;99.90;;;;;;5056070;28;20109;-48
2022/11/16 07:38:26;;;;;;;29.63;19.40;;;10.10;99.90;;;;;;5051484;28;22112;-50
2022/11/16 07:40:52;;;;;;;24.65;17.48;;;10.10;99.90;;;;;;5049045;28;20086;-47
2022/11/16 07:43:17;;;;;;;26.63;17.85;;;10.10;99.90;;;;;;5051711;28;20123;-44
2022/11/16 07:45:43;;;;;;;37.67;19.38;;;9.90;99.90;;;;;;5060258;28;20101;-42
2022/11/16 07:48:09;;;;;;;23.45;18.20;;;10.00;99.90;;;;;;5061576;28;20566;-45
2022/11/16 07:50:35;;;;;;;25.58;18.83;;;9.90;99.90;;;;;;5054810;28;20056;-47
2022/11/16 07:53:01;;;;;;;26.80;18.95;;;9.90;99.90;;;;;;5054149;28;20060;-49
2022/11/16 07:55:30;;;;;;;34.83;20.40;;;9.90;99.90;;;;;;5055824;28;20049;-49
2022/11/16 07:57:58;;;;;;;36.47;21.58;;;9.90;99.90;;;;;;5056497;28;20508;-50
2022/11/16 08:00:23;;;;;;;39.83;20.73;;;10.00;99.90;;;;;;5055293;28;20098;-45
2022/11/16 08:02:49;;;;;;;37.70;21.00;;;9.90;99.90;;;;;;5056171;28;20461;-49
2022/11/16 08:05:15;;;;;;;38.22;21.20;;;10.10;99.90;;;;;;5053826;28;20056;-45
2022/11/16 08:07:40;;;;;;;34.88;21.10;;;10.10;99.90;;;;;;5054777;28;20542;-51
2022/11/16 08:10:06;;;;;;;33.85;20.83;;;9.90;99.90;;;;;;5054895;28;20512;-48
2022/11/16 08:12:32;;;;;;;30.65;20.05;;;9.90;99.90;;;;;;5055088;28;20049;-44
2022/11/16 08:14:58;;;;;;;30.45;19.08;;;10.00;99.90;;;;;;5055132;28;20775;-44
2022/11/16 08:17:23;;;;;;;32.92;20.42;;;10.00;99.90;;;;;;5054881;28;20044;-47
2022/11/16 08:19:49;;;;;;;29.60;19.30;;;10.10;99.90;;;;;;5054600;28;20041;-46
2022/11/16 08:22:15;;;;;;;29.63;18.60;;;9.90;99.90;;;;;;5050789;28;20501;-47
2022/11/16 08:24:40;;;;;;;32.67;18.52;;;9.90;99.90;;;;;;5055378;28;20048;-42
2022/11/16 08:27:06;;;;;;;34.10;18.63;;;9.90;99.90;;;;;;5055379;28;20604;-43
2022/11/16 08:29:32;;;;;;;29.08;18.63;;;10.10;99.90;;;;;;5054742;28;20105;-49
2022/11/16 08:31:58;;;;;;;41.42;19.85;;;10.10;99.90;;;;;;5056279;28;20052;-45
2022/11/16 08:34:23;;;;;;;28.73;19.48;;;10.10;99.90;;;;;;5055266;28;20050;-46
2022/11/16 08:36:49;;;;;;;38.20;20.70;;;10.20;99.90;;;;;;5054536;28;20405;-46
2022/11/16 08:39:15;;;;;;;34.75;19.60;;;10.30;99.90;;;;;;5055366;28;20132;-46
2022/11/16 08:41:41;;;;;;;36.42;20.10;;;10.30;99.90;;;;;;5051335;28;20182;-46
2022/11/16 08:44:07;;;;;;;29.38;19.38;;;10.40;99.90;;;;;;5055750;28;20052;-48
2022/11/16 08:46:32;;;;;;;36.78;21.02;;;10.40;99.90;;;;;;5053308;28;20061;-46
2022/11/16 08:48:58;;;;;;;37.90;20.25;;;10.30;99.90;;;;;;5054346;28;20044;-49
2022/11/16 08:51:24;;;;;;;36.08;20.65;;;10.30;99.90;;;;;;5055472;28;20052;-42
2022/11/16 08:53:55;;;;;;;36.85;21.90;;;10.50;99.90;;;;;;5055093;28;20055;-45
2022/11/16 08:56:21;;;;;;;37.03;22.00;;;10.50;99.90;;;;;;5053248;28;20051;-43
2022/11/16 08:58:47;;;;;;;38.78;22.52;;;10.40;99.90;;;;;;5051159;28;20036;-43
2022/11/16 09:01:15;;;;;;;38.72;23.40;;;10.40;99.90;;;;;;5061763;28;20048;-48
2022/11/16 09:03:41;;;;;;;32.20;22.60;;;10.50;99.90;;;;;;5058066;28;20461;-48
2022/11/16 09:06:08;;;;;;;39.70;23.58;;;10.70;99.90;;;;;;5050838;28;20143;-46
2022/11/16 09:08:36;;;;;;;34.20;22.67;;;10.60;99.90;;;;;;5050548;28;20728;-45
2022/11/16 09:11:06;;;;;;;41.17;24.02;;;10.60;99.90;;;;;;5055770;28;20391;-44
2022/11/16 09:13:32;;;;;;;36.83;23.90;;;10.70;99.90;;;;;;5055471;28;20047;-42
2022/11/16 09:15:59;;;;;;;35.90;24.27;;;10.90;99.90;;;;;;5054466;28;20045;-45
2022/11/16 09:18:25;;;;;;;34.22;23.92;;;10.90;99.90;;;;;;5055130;28;20051;-49
2022/11/16 09:20:51;;;;;;;37.45;24.05;;;11.00;99.90;;;;;;5056059;28;20101;-46
2022/11/16 09:23:17;;;;;;;34.55;25.00;;;11.10;99.90;;;;;;5051855;28;20054;-46
2022/11/16 09:25:44;;;;;;;35.60;24.48;;;11.20;99.90;;;;;;5047727;28;20050;-49
2022/11/16 09:28:10;;;;;;;36.78;25.35;;;11.30;99.90;;;;;;5046315;28;20778;-46
2022/11/16 09:30:36;;;;;;;27.70;23.40;;;11.30;99.90;;;;;;5057086;28;20059;-46
2022/11/16 09:33:01;;;;;;;30.70;23.92;;;11.00;99.90;;;;;;5057454;28;20048;-44
2022/11/16 09:35:27;;;;;;;28.63;22.50;;;11.10;99.90;;;;;;5056933;28;20048;-42
2022/11/16 09:37:53;;;;;;;26.85;22.20;;;11.00;99.90;;;;;;5052129;28;20041;-49
2022/11/16 09:40:19;;;;;;;35.22;24.02;;;11.10;99.90;;;;;;5044296;28;20048;-45
2022/11/16 09:43:03;;;;;;;28.92;23.23;;;11.20;99.90;;;;;;5051090;28;20054;-46
2022/11/16 09:45:50;;;;;;;24.90;20.70;;;11.20;99.90;;;;;;5047986;28;20307;-47
2022/11/16 09:48:17;;;;;;;30.73;21.65;;;11.20;99.90;;;;;;5042523;28;20084;-44
2022/11/16 09:50:56;;;;;;;27.40;21.13;;;11.30;99.90;;;;;;5042769;28;20526;-45
2022/11/16 09:53:32;;;;;;;24.88;20.83;;;11.10;99.90;;;;;;5060955;28;20052;-45
2022/11/16 09:56:03;;;;;;;21.17;18.88;;;11.20;99.90;;;;;;5044054;28;20174;-48
2022/11/16 09:58:41;;;;;;;21.42;18.65;;;11.00;99.90;;;;;;5044365;28;20051;-49
2022/11/16 10:01:26;;;;;;;24.10;17.42;;;11.10;99.90;;;;;;5045706;28;20079;-47
2022/11/16 10:04:05;;;;;;;24.40;19.67;;;11.20;99.90;;;;;;5044240;28;20055;-48
2022/11/16 10:06:51;;;;;;;23.88;18.75;;;11.20;99.90;;;;;;5047369;28;20661;-44
2022/11/16 10:09:18;;;;;;;18.77;16.23;;;11.20;99.90;;;;;;5041138;28;20141;-43
2022/11/16 10:12:02;;;;;;;20.52;16.20;;;11.10;99.90;;;;;;5038830;28;20082;-47
2022/11/16 10:14:43;;;;;;;18.52;16.52;;;11.00;99.90;;;;;;5044552;28;20475;-42
2022/11/16 10:17:26;;;;;;;21.70;18.33;;;10.90;99.90;;;;;;5045504;28;20174;-46
2022/11/16 10:20:15;;;;;;;22.67;18.08;;;11.10;99.90;;;;;;5050530;28;20048;-48
2022/11/16 10:23:12;;;;;;;21.98;18.40;;;11.00;99.90;;;;;;5049059;28;20051;-42
2022/11/16 10:25:42;;;;;;;21.88;17.20;;;10.90;99.90;;;;;;5049702;28;20044;-44
2022/11/16 10:28:17;;;;;;;24.65;17.55;;;10.80;99.90;;;;;;5051982;28;20083;-44
2022/11/16 10:30:58;;;;;;;21.13;17.13;;;10.70;99.90;;;;;;5040198;28;20139;-50
2022/11/16 10:33:25;;;;;;;21.35;16.33;;;10.70;99.90;;;;;;5064943;28;20437;-46
2022/11/16 10:35:55;;;;;;;20.98;17.00;;;10.80;99.90;;;;;;5053346;28;20040;-44
2022/11/16 10:38:27;;;;;;;21.25;16.48;;;10.80;99.90;;;;;;5056839;28;20048;-44
2022/11/16 10:41:00;;;;;;;18.27;16.23;;;10.80;99.90;;;;;;5051431;28;20560;-47
2022/11/16 10:43:30;;;;;;;21.13;15.90;;;10.80;99.90;;;;;;5055515;28;20131;-44
2022/11/16 10:46:15;;;;;;;20.67;17.00;;;10.90;99.90;;;;;;5054929;28;20282;-44
2022/11/16 10:48:50;;;;;;;18.80;15.93;;;10.80;99.90;;;;;;5055884;28;20120;-46
2022/11/16 10:51:15;;;;;;;23.88;15.68;;;10.80;99.90;;;;;;5056611;28;20525;-45
2022/11/16 10:53:43;;;;;;;21.98;16.30;;;10.90;99.90;;;;;;5054729;28;20102;-43
2022/11/16 10:56:24;;;;;;;20.08;16.23;;;10.90;99.90;;;;;;5055197;28;20677;-47
2022/11/16 10:59:02;;;;;;;18.15;13.65;;;10.80;99.90;;;;;;5053908;28;20491;-45
2022/11/16 11:01:40;;;;;;;18.48;12.95;;;10.90;99.90;;;;;;5055992;28;20040;-45
2022/11/16 11:04:18;;;;;;;17.52;13.35;;;10.80;99.90;;;;;;5054621;28;20044;-44
2022/11/16 11:06:47;;;;;;;18.90;14.63;;;10.70;99.90;;;;;;5054718;28;20039;-47
2022/11/16 11:09:34;;;;;;;20.08;13.35;;;10.70;99.90;;;;;;5055038;28;20056;-43
2022/11/16 11:15:09;;;;;;;15.60;11.43;;;10.50;99.90;;;;;;5041264;28;20098;-44
2022/11/16 11:17:40;;;;;;;16.65;11.40;;;10.50;99.90;;;;;;5047912;28;20152;-47
2022/11/16 11:20:19;;;;;;;17.48;12.05;;;10.40;99.90;;;;;;5058367;28;20044;-45
2022/11/16 11:22:51;;;;;;;15.27;10.38;;;10.40;99.90;;;;;;5053051;28;20063;-47
2022/11/16 11:25:26;;;;;;;18.52;11.20;;;10.40;99.90;;;;;;5055476;28;20453;-49
2022/11/16 11:28:04;;;;;;;16.10;9.70;;;10.40;99.90;;;;;;5056707;28;20353;-50
2022/11/16 11:30:30;;;;;;;14.45;9.15;;;10.30;99.90;;;;;;5056745;28;20084;-43
2022/11/16 11:32:57;;;;;;;13.60;8.70;;;10.30;99.90;;;;;;5056906;28;20155;-45
2022/11/16 11:35:30;;;;;;;19.13;10.05;;;10.20;99.90;;;;;;5056255;28;20105;-45
2022/11/16 11:37:58;;;;;;;18.23;8.32;;;10.30;99.90;;;;;;5056590;28;20052;-45
2022/11/16 11:40:31;;;;;;;11.70;8.30;;;10.30;99.90;;;;;;5048882;28;20049;-42
2022/11/16 11:43:03;;;;;;;16.40;8.23;;;10.20;99.90;;;;;;5047802;28;20048;-43
2022/11/16 11:45:47;;;;;;;14.68;8.20;;;10.30;99.90;;;;;;5050270;28;20127;-48
2022/11/16 11:48:22;;;;;;;15.13;8.52;;;10.40;99.90;;;;;;5042645;28;20041;-45
2022/11/16 11:50:58;;;;;;;12.88;8.05;;;10.40;99.90;;;;;;5054500;28;20055;-44
2022/11/16 11:53:43;;;;;;;15.70;7.20;;;10.40;99.90;;;;;;5052979;28;20135;-45
2022/11/16 11:56:11;;;;;;;11.32;7.30;;;10.40;99.90;;;;;;5051088;28;20664;-46
2022/11/16 11:58:39;;;;;;;14.55;6.88;;;10.40;99.90;;;;;;5053853;28;20049;-45
2022/11/16 12:01:26;;;;;;;13.82;7.25;;;10.30;99.90;;;;;;5052866;28;20044;-46
2022/11/16 12:04:06;;;;;;;12.95;6.95;;;10.40;99.90;;;;;;5054470;28;20478;-47
2022/11/16 12:06:43;;;;;;;12.85;6.95;;;10.60;99.90;;;;;;5053607;28;20234;-46
2022/11/16 12:09:19;;;;;;;11.70;7.68;;;10.80;99.90;;;;;;5053837;28;20325;-45
2022/11/16 12:12:14;;;;;;;13.98;7.00;;;10.90;99.90;;;;;;5053419;28;20051;-47
2022/11/16 12:15:07;;;;;;;15.18;5.38;;;11.00;99.90;;;;;;5027737;28;20048;-45
2022/11/16 12:17:51;;;;;;;9.70;4.43;;;11.10;99.90;;;;;;5013320;28;20045;-47
2022/11/16 12:20:40;;;;;;;13.32;4.55;;;11.10;99.90;;;;;;5028170;28;20045;-45
2022/11/16 12:23:28;;;;;;;14.93;4.57;;;11.10;99.90;;;;;;5030281;28;20057;-45
2022/11/16 12:25:56;;;;;;;12.82;4.75;;;11.10;99.90;;;;;;5030983;28;20064;-45
2022/11/16 12:28:39;;;;;;;13.23;3.97;;;11.10;99.90;;;;;;5031377;28;20045;-47
2022/11/16 12:31:32;;;;;;;8.10;3.40;;;11.10;99.90;;;;;;5032222;28;20056;-46
2022/11/16 12:34:08;;;;;;;9.40;4.00;;;11.10;99.90;;;;;;5032335;28;20072;-45
2022/11/16 12:37:02;;;;;;;9.23;3.85;;;11.10;99.90;;;;;;5031847;28;20736;-43
2022/11/16 12:39:49;;;;;;;11.60;3.72;;;11.10;99.90;;;;;;5031755;28;20126;-44
2022/11/16 12:42:32;;;;;;;12.55;4.85;;;11.00;99.90;;;;;;5030425;28;20456;-43
2022/11/16 12:45:30;;;;;;;12.57;4.15;;;11.00;99.90;;;;;;5026514;28;20140;-46
2022/11/16 12:48:35;;;;;;;12.85;4.85;;;10.90;99.90;;;;;;5007632;28;20145;-45
2022/11/16 12:51:28;;;;;;;11.13;4.57;;;11.00;99.90;;;;;;5014380;28;20897;-43
2022/11/16 12:53:57;;;;;;;13.30;4.65;;;10.90;99.90;;;;;;5031067;28;20079;-45
2022/11/16 12:56:31;;;;;;;14.13;5.07;;;11.00;99.90;;;;;;5031037;28;20049;-48
2022/11/16 12:58:59;;;;;;;13.50;4.57;;;11.00;99.90;;;;;;5031330;28;20136;-45
2022/11/16 13:01:38;;;;;;;17.05;7.13;;;11.00;99.90;;;;;;5008816;28;20458;-48
2022/11/16 13:04:09;;;;;;;15.13;5.25;;;11.00;99.90;;;;;;5023072;28;20053;-45
2022/11/16 13:06:42;;;;;;;16.58;5.25;;;11.00;99.90;;;;;;5020202;28;20127;-47
2022/11/16 13:09:08;;;;;;;;;;;11.00;99.90;;;;;;5010834;28;20143;-45
2022/11/16 13:11:56;;;;;;;10.80;4.68;;;11.00;99.90;;;;;;5024753;28;20002;-50
2022/11/16 13:14:32;;;;;;;13.73;5.35;;;11.00;99.90;;;;;;5007508;28;20060;-48
2022/11/16 13:17:00;;;;;;;12.00;4.78;;;11.00;99.90;;;;;;5019876;28;20081;-44
2022/11/16 13:19:27;;;;;;;15.90;6.10;;;11.10;99.90;;;;;;5018583;28;20049;-47
2022/11/16 13:22:20;;;;;;;14.48;4.78;;;11.10;99.90;;;;;;5021636;28;20084;-48
2022/11/16 13:24:52;;;;;;;;;;;11.20;99.90;;;;;;5051956;28;20060;-46
2022/11/16 13:27:26;;;;;;;12.43;4.68;;;11.20;99.90;;;;;;5046052;28;19951;-42
2022/11/16 13:30:05;;;;;;;12.48;4.55;;;11.10;99.90;;;;;;5065149;28;20049;-49
2022/11/16 13:32:55;;;;;;;11.00;3.97;;;11.10;99.90;;;;;;5046398;28;20041;-45
2022/11/16 13:35:21;;;;;;;11.60;3.85;;;11.00;99.90;;;;;;5041250;28;20084;-46
2022/11/16 13:37:50;;;;;;;14.57;3.92;;;10.90;99.90;;;;;;5049651;28;20041;-45
2022/11/16 13:40:31;;;;;;;11.57;4.03;;;10.90;99.90;;;;;;5044422;28;20049;-42